Time;durP1;ratioP1;P1;durP2;ratioP2;P2;SDS_P1;SDS_P2;PMS_P1;PMS_P2;Temp;Humidity;BMP_temperature;BMP_pressure;BME280_temperature;BME280_humidity;BME280_pressure;Samples;Min_cycle;Max_cycle;Signal;HPM_P1;HPM_P2
2021/07/23 00:00:37;;;;;;;4.30;3.78;;;23.90;47.40;;;;;;5067192;28;20240;-79
2021/07/23 00:03:07;;;;;;;4.35;3.85;;;23.90;47.40;;;;;;5085405;28;20496;-79
2021/07/23 00:05:33;;;;;;;4.75;3.95;;;23.90;47.40;;;;;;5068106;28;20177;-79
2021/07/23 00:08:00;;;;;;;4.45;4.05;;;23.90;47.40;;;;;;5085470;28;20518;-79
2021/07/23 00:10:30;;;;;;;4.25;3.85;;;23.80;47.50;;;;;;5068586;28;20612;-79
2021/07/23 00:12:56;;;;;;;4.10;3.63;;;23.80;47.50;;;;;;5067579;28;20221;-80
2021/07/23 00:15:22;;;;;;;4.45;4.05;;;23.80;47.40;;;;;;5084738;28;20189;-79
2021/07/23 00:17:48;;;;;;;4.80;4.22;;;23.90;47.50;;;;;;5101160;28;20196;-79
2021/07/23 00:20:19;;;;;;;4.20;3.80;;;23.80;47.60;;;;;;5085042;28;20161;-79
2021/07/23 00:22:49;;;;;;;4.20;3.80;;;23.90;47.60;;;;;;5084303;28;20181;-79
2021/07/23 00:25:15;;;;;;;4.40;3.95;;;23.90;47.50;;;;;;5050901;28;20211;-80
2021/07/23 00:27:46;;;;;;;4.70;4.20;;;23.80;47.60;;;;;;5085549;28;20627;-79
2021/07/23 00:30:12;;;;;;;4.88;4.10;;;23.80;47.60;;;;;;5083738;28;20181;-79
2021/07/23 00:32:42;;;;;;;4.45;3.92;;;23.80;47.50;;;;;;5085249;28;20237;-80
2021/07/23 00:35:09;;;;;;;4.53;4.03;;;23.80;47.50;;;;;;5067500;28;20326;-79
2021/07/23 00:37:35;;;;;;;4.40;4.00;;;23.80;47.50;;;;;;5101697;28;20165;-79
2021/07/23 00:40:06;;;;;;;4.13;3.72;;;23.80;47.60;;;;;;5085590;28;20192;-80
2021/07/23 00:42:36;;;;;;;4.95;4.20;;;23.80;47.60;;;;;;5067381;28;20625;-79
2021/07/23 00:45:07;;;;;;;4.63;4.15;;;23.80;47.60;;;;;;5084453;28;20256;-80
2021/07/23 00:47:35;;;;;;;4.55;4.00;;;23.80;47.70;;;;;;5067410;28;20181;-80
2021/07/23 00:50:01;;;;;;;4.35;3.95;;;23.80;47.60;;;;;;5086946;28;20225;-80
2021/07/23 00:52:32;;;;;;;5.50;4.90;;;23.80;47.60;;;;;;5104997;28;20196;-79
2021/07/23 00:54:58;;;;;;;5.10;4.60;;;23.80;47.70;;;;;;5087097;28;20184;-80
2021/07/23 00:57:29;;;;;;;4.95;4.43;;;23.80;47.70;;;;;;5105069;28;20245;-79
2021/07/23 00:59:58;;;;;;;5.20;4.68;;;23.80;47.70;;;;;;5087948;28;20185;-79
2021/07/23 01:02:25;;;;;;;4.55;4.10;;;23.80;48.40;;;;;;5048922;28;20233;-79
2021/07/23 01:04:51;;;;;;;4.70;4.28;;;23.80;47.70;;;;;;5065254;28;20165;-79
2021/07/23 01:07:17;;;;;;;5.30;4.60;;;23.80;47.70;;;;;;5064235;28;20152;-80
2021/07/23 01:09:43;;;;;;;4.65;4.15;;;23.80;47.70;;;;;;5047805;28;20222;-79
2021/07/23 01:12:13;;;;;;;5.53;4.68;;;23.80;47.70;;;;;;5064320;28;20194;-80
2021/07/23 01:14:45;;;;;;;4.90;4.40;;;23.80;47.80;;;;;;5064209;28;20206;-79
2021/07/23 01:17:15;;;;;;;4.85;4.13;;;23.80;47.50;;;;;;5046167;28;20179;-79
2021/07/23 01:19:46;;;;;;;4.72;4.22;;;23.80;47.60;;;;;;5047079;28;20187;-79
2021/07/23 01:22:12;;;;;;;4.47;3.92;;;23.80;47.70;;;;;;5064566;28;20162;-79
2021/07/23 01:24:42;;;;;;;4.38;3.97;;;23.80;47.50;;;;;;5048139;28;20285;-79
2021/07/23 01:27:08;;;;;;;5.18;4.38;;;23.80;47.50;;;;;;5064135;28;20190;-79
2021/07/23 01:29:43;;;;;;;4.93;4.43;;;23.80;47.60;;;;;;5064240;28;20629;-79
2021/07/23 01:32:13;;;;;;;4.65;4.18;;;23.80;47.50;;;;;;5030817;28;20214;-79
2021/07/23 01:34:39;;;;;;;4.40;4.00;;;23.80;47.60;;;;;;5046280;28;20645;-79
2021/07/23 01:37:15;;;;;;;4.15;3.75;;;23.80;47.60;;;;;;5047617;28;20183;-80
2021/07/23 01:39:41;;;;;;;4.32;3.92;;;23.80;47.60;;;;;;5029011;28;20189;-79
2021/07/23 01:42:12;;;;;;;4.85;4.22;;;23.80;47.60;;;;;;5047544;28;20170;-80
2021/07/23 01:44:38;;;;;;;4.88;3.97;;;23.80;47.60;;;;;;5046637;28;20233;-80
2021/07/23 01:47:04;;;;;;;4.63;4.10;;;23.70;47.60;;;;;;5047303;28;20159;-79
2021/07/23 01:49:30;;;;;;;5.03;4.35;;;23.80;47.70;;;;;;5063580;28;20170;-79
2021/07/23 01:52:03;;;;;;;4.65;4.00;;;23.70;47.60;;;;;;5046989;28;20236;-80
2021/07/23 01:54:29;;;;;;;4.45;4.05;;;23.80;47.70;;;;;;5063821;28;20183;-79
2021/07/23 01:56:55;;;;;;;4.80;4.30;;;23.70;47.70;;;;;;5047219;28;20158;-79
2021/07/23 01:59:26;;;;;;;4.68;4.18;;;23.70;47.70;;;;;;5081058;28;20159;-79
2021/07/23 02:01:56;;;;;;;4.82;4.15;;;23.80;47.70;;;;;;5054097;28;20226;-79
2021/07/23 02:04:23;;;;;;;4.88;4.22;;;23.70;47.70;;;;;;5046157;28;20186;-79
2021/07/23 02:06:49;;;;;;;4.50;4.10;;;23.80;47.80;;;;;;5046617;28;20163;-79
2021/07/23 02:09:19;;;;;;;4.70;4.05;;;23.70;47.70;;;;;;5047393;28;20205;-79
2021/07/23 02:11:50;;;;;;;4.90;4.05;;;23.70;47.80;;;;;;5013410;28;20218;-79
2021/07/23 02:14:16;;;;;;;4.95;4.20;;;23.60;47.70;;;;;;5029535;28;20183;-79
2021/07/23 02:16:43;;;;;;;5.07;4.25;;;23.70;47.80;;;;;;5046920;28;20215;-79
2021/07/23 02:19:12;;;;;;;4.38;3.97;;;23.70;47.80;;;;;;5046829;28;20177;-80
2021/07/23 02:21:43;;;;;;;4.63;4.20;;;23.70;47.80;;;;;;5012811;28;20179;-79
2021/07/23 02:24:16;;;;;;;4.50;3.95;;;23.60;47.80;;;;;;5013162;28;20239;-79
2021/07/23 02:26:47;;;;;;;4.53;3.92;;;23.70;47.80;;;;;;5029087;28;20209;-80
2021/07/23 02:29:18;;;;;;;4.85;4.30;;;23.70;47.80;;;;;;5012853;28;20196;-79
2021/07/23 02:31:53;;;;;;;4.70;4.20;;;23.70;47.80;;;;;;5012193;28;20264;-79
2021/07/23 02:34:19;;;;;;;5.30;4.28;;;23.70;47.80;;;;;;5012555;28;20236;-79
2021/07/23 02:36:52;;;;;;;4.90;4.30;;;23.70;47.80;;;;;;5030733;28;20175;-79
2021/07/23 02:39:24;;;;;;;4.90;4.38;;;23.70;48.50;;;;;;5012666;28;20270;-79
2021/07/23 02:41:57;;;;;;;4.30;3.90;;;23.70;47.90;;;;;;5012821;28;20186;-80
2021/07/23 02:44:29;;;;;;;4.90;4.20;;;23.70;47.80;;;;;;5029759;28;20182;-79
2021/07/23 02:46:59;;;;;;;4.35;3.95;;;23.70;47.80;;;;;;5029360;28;20209;-79
2021/07/23 02:49:29;;;;;;;4.40;4.00;;;23.70;47.80;;;;;;5012594;28;20185;-79
2021/07/23 02:51:55;;;;;;;4.50;4.00;;;23.70;47.80;;;;;;5045499;28;20249;-79
2021/07/23 02:54:22;;;;;;;5.38;4.30;;;23.70;47.90;;;;;;5029912;28;20174;-79
2021/07/23 02:56:47;;;;;;;4.72;4.25;;;23.70;47.90;;;;;;5029794;28;20175;-79
2021/07/23 02:59:19;;;;;;;4.57;4.18;;;23.70;47.90;;;;;;5045418;28;20265;-79
2021/07/23 03:01:50;;;;;;;4.45;4.00;;;23.70;47.90;;;;;;5044118;28;20276;-79
2021/07/23 03:04:16;;;;;;;4.55;4.07;;;23.70;48.60;;;;;;5085838;28;20181;-79
2021/07/23 03:06:46;;;;;;;4.43;3.90;;;23.60;47.90;;;;;;5069233;28;20184;-79
2021/07/23 03:09:16;;;;;;;4.65;4.10;;;23.60;47.90;;;;;;5068190;28;20181;-79
2021/07/23 03:11:50;;;;;;;4.85;4.35;;;23.70;48.00;;;;;;5067666;28;20193;-80
2021/07/23 03:14:21;;;;;;;4.80;4.30;;;23.60;47.90;;;;;;5067645;28;20520;-79
2021/07/23 03:16:46;;;;;;;5.00;4.50;;;23.60;48.00;;;;;;5085569;28;20208;-79
2021/07/23 03:19:12;;;;;;;4.65;4.25;;;23.60;48.00;;;;;;5085313;28;20153;-79
2021/07/23 03:21:43;;;;;;;4.55;4.07;;;23.70;48.00;;;;;;5069423;28;20158;-79
2021/07/23 03:24:09;;;;;;;4.68;4.03;;;23.60;48.00;;;;;;5085344;28;20217;-79
2021/07/23 03:26:42;;;;;;;4.85;4.15;;;23.60;48.00;;;;;;5085644;28;20157;-79
2021/07/23 03:29:12;;;;;;;4.63;4.05;;;23.60;48.00;;;;;;5050845;28;20201;-79
2021/07/23 03:31:42;;;;;;;4.30;3.90;;;23.60;48.10;;;;;;5084970;28;20188;-79
2021/07/23 03:34:13;;;;;;;4.28;3.88;;;23.70;48.10;;;;;;5067829;28;20181;-79
2021/07/23 03:36:39;;;;;;;4.78;4.13;;;23.60;48.00;;;;;;5068178;28;20188;-79
2021/07/23 03:39:05;;;;;;;4.35;3.95;;;23.60;48.10;;;;;;5084999;28;20161;-79
2021/07/23 03:41:36;;;;;;;5.10;4.43;;;23.60;48.10;;;;;;5085166;28;20185;-79
2021/07/23 03:44:07;;;;;;;4.50;4.07;;;23.50;48.00;;;;;;5067749;28;20213;-79
2021/07/23 03:46:33;;;;;;;4.28;3.80;;;23.60;48.00;;;;;;5066958;28;20185;-79
2021/07/23 03:48:58;;;;;;;4.40;4.00;;;23.60;48.00;;;;;;5085867;28;20163;-80
2021/07/23 03:51:25;;;;;;;5.18;4.10;;;23.60;48.10;;;;;;5085443;28;20157;-79
2021/07/23 03:53:50;;;;;;;6.45;3.92;;;23.60;48.00;;;;;;5085499;28;20200;-79
2021/07/23 03:56:20;;;;;;;4.63;4.13;;;23.60;48.10;;;;;;5085216;28;20176;-79
2021/07/23 03:58:47;;;;;;;4.40;3.95;;;23.60;48.00;;;;;;5067981;28;20181;-79
2021/07/23 04:01:12;;;;;;;4.72;4.22;;;23.60;48.10;;;;;;5084345;28;20231;-79
2021/07/23 04:03:44;;;;;;;4.60;4.07;;;23.60;48.00;;;;;;5086278;28;20221;-79
2021/07/23 04:06:10;;;;;;;4.80;4.30;;;23.60;48.10;;;;;;5067616;28;20181;-79
2021/07/23 04:08:41;;;;;;;5.13;4.28;;;23.60;48.00;;;;;;5084907;28;20180;-79
2021/07/23 04:11:16;;;;;;;4.20;3.80;;;23.60;48.00;;;;;;5068510;28;20177;-79
2021/07/23 04:13:49;;;;;;;4.78;4.20;;;23.70;48.10;;;;;;5052275;28;20223;-79
2021/07/23 04:16:15;;;;;;;4.65;4.00;;;23.70;48.00;;;;;;5067027;28;20648;-79
2021/07/23 04:18:46;;;;;;;4.55;3.78;;;23.60;47.80;;;;;;5084981;28;20169;-79
2021/07/23 04:21:12;;;;;;;4.40;4.00;;;23.60;47.80;;;;;;5067647;28;20265;-79
2021/07/23 04:23:38;;;;;;;4.10;3.70;;;23.60;47.90;;;;;;5101844;28;20173;-79
2021/07/23 04:26:04;;;;;;;4.43;3.67;;;23.50;47.90;;;;;;5071927;28;20184;-79
2021/07/23 04:28:30;;;;;;;4.32;3.58;;;23.40;47.90;;;;;;5072152;28;20177;-79
2021/07/23 04:31:02;;;;;;;3.88;3.40;;;23.30;48.10;;;;;;5071997;28;20532;-79
2021/07/23 04:33:32;;;;;;;3.30;2.90;;;23.30;48.30;;;;;;5087831;28;20285;-79
2021/07/23 04:36:02;;;;;;;3.92;3.45;;;23.40;48.10;;;;;;5071293;28;20548;-79
2021/07/23 04:38:33;;;;;;;3.88;3.50;;;23.50;47.90;;;;;;5071158;28;20184;-80
2021/07/23 04:40:59;;;;;;;4.00;3.50;;;23.60;47.60;;;;;;5071009;28;20177;-79
2021/07/23 04:43:31;;;;;;;3.78;3.30;;;23.70;47.60;;;;;;5072381;28;20311;-79
2021/07/23 04:46:01;;;;;;;4.18;3.53;;;23.60;47.50;;;;;;5071394;28;20196;-80
2021/07/23 04:48:32;;;;;;;4.07;3.47;;;23.70;47.20;;;;;;5087790;28;20193;-79
2021/07/23 04:51:02;;;;;;;3.85;3.40;;;23.80;47.30;;;;;;5071525;28;20215;-79
2021/07/23 04:53:31;;;;;;;3.88;3.47;;;23.70;47.30;;;;;;5088532;28;20190;-80
2021/07/23 04:56:04;;;;;;;3.95;3.55;;;23.80;47.10;;;;;;5054512;28;20181;-79
2021/07/23 04:58:30;;;;;;;4.60;4.05;;;23.80;47.30;;;;;;5087197;28;20302;-79
2021/07/23 05:00:56;;;;;;;3.78;3.40;;;23.80;47.10;;;;;;5088758;28;20266;-79
2021/07/23 05:03:23;;;;;;;4.22;3.40;;;23.80;47.10;;;;;;5072563;28;20169;-79
2021/07/23 05:05:50;;;;;;;3.63;3.20;;;23.80;47.80;;;;;;5088535;28;20260;-79
2021/07/23 05:08:16;;;;;;;3.63;3.25;;;23.80;47.10;;;;;;5089279;28;20187;-79
2021/07/23 05:10:43;;;;;;;4.20;3.55;;;23.80;47.10;;;;;;5071259;28;20161;-79
2021/07/23 05:13:13;;;;;;;3.95;3.30;;;23.80;47.00;;;;;;5087896;28;20247;-79
2021/07/23 05:15:43;;;;;;;3.80;3.40;;;23.90;47.00;;;;;;5087482;28;20192;-79
2021/07/23 05:18:09;;;;;;;4.22;3.50;;;23.90;46.90;;;;;;5086983;28;20185;-79
2021/07/23 05:20:36;;;;;;;3.80;3.40;;;23.90;47.00;;;;;;5087897;28;20164;-79
2021/07/23 05:23:07;;;;;;;4.28;3.50;;;23.90;46.80;;;;;;5088994;28;20204;-79
2021/07/23 05:25:37;;;;;;;4.13;3.72;;;23.90;46.90;;;;;;5070426;28;20556;-79
2021/07/23 05:28:08;;;;;;;4.30;3.60;;;23.90;46.90;;;;;;5070307;28;20185;-79
2021/07/23 05:30:34;;;;;;;5.53;3.50;;;23.90;46.80;;;;;;5069995;28;20260;-79
2021/07/23 05:33:04;;;;;;;4.43;3.53;;;24.00;46.90;;;;;;5087544;28;20196;-79
2021/07/23 05:35:37;;;;;;;4.50;3.47;;;24.00;46.70;;;;;;5069803;28;20185;-79
2021/07/23 05:38:14;;;;;;;3.72;3.22;;;24.00;46.60;;;;;;5086582;28;20244;-79
2021/07/23 05:40:41;;;;;;;3.60;3.25;;;24.00;46.70;;;;;;5071398;28;20188;-79
2021/07/23 05:43:08;;;;;;;3.80;3.40;;;24.00;46.60;;;;;;5104262;28;20240;-79
2021/07/23 05:45:38;;;;;;;4.20;3.63;;;24.00;46.50;;;;;;5088112;28;20169;-79
2021/07/23 05:48:09;;;;;;;3.92;3.40;;;24.00;46.80;;;;;;5087035;28;20169;-79
2021/07/23 05:50:41;;;;;;;3.70;3.33;;;23.90;46.80;;;;;;5069820;28;20173;-79
2021/07/23 05:53:07;;;;;;;3.90;3.50;;;24.00;46.70;;;;;;5069468;28;20308;-79
2021/07/23 05:55:33;;;;;;;3.70;3.30;;;23.90;46.20;;;;;;5087534;28;20516;-79
2021/07/23 05:57:59;;;;;;;4.00;3.60;;;24.10;46.60;;;;;;5087615;28;20150;-79
2021/07/23 06:00:26;;;;;;;3.88;3.25;;;24.10;46.60;;;;;;5104426;28;20161;-79
2021/07/23 06:03:01;;;;;;;3.55;3.20;;;24.00;46.70;;;;;;5070414;28;20180;-79
2021/07/23 06:05:30;;;;;;;3.67;3.20;;;24.00;46.70;;;;;;5069157;28;20177;-81
2021/07/23 06:08:00;;;;;;;3.65;3.35;;;24.00;46.60;;;;;;5086135;28;20272;-79
2021/07/23 06:10:26;;;;;;;3.78;3.40;;;24.00;46.60;;;;;;5086362;28;20185;-79
2021/07/23 06:12:56;;;;;;;3.92;3.47;;;24.00;46.60;;;;;;5086448;28;20189;-79
2021/07/23 06:15:26;;;;;;;3.60;3.20;;;24.10;46.60;;;;;;5052668;28;20177;-79
2021/07/23 06:17:52;;;;;;;4.07;3.60;;;24.10;46.50;;;;;;5052637;28;20178;-79
2021/07/23 06:20:22;;;;;;;4.68;3.72;;;24.10;46.50;;;;;;5086613;28;20165;-79
2021/07/23 06:22:48;;;;;;;3.55;3.22;;;24.00;46.60;;;;;;5085446;28;20185;-79
2021/07/23 06:25:18;;;;;;;4.00;3.22;;;24.00;46.60;;;;;;5086209;28;20200;-79
2021/07/23 06:27:49;;;;;;;3.47;3.17;;;24.00;46.40;;;;;;5068863;28;20618;-79
2021/07/23 06:30:15;;;;;;;3.45;3.15;;;24.10;46.40;;;;;;5068549;28;20207;-79
2021/07/23 06:32:41;;;;;;;3.67;3.30;;;24.10;46.40;;;;;;5086085;28;20197;-79
2021/07/23 06:35:14;;;;;;;3.28;2.90;;;24.10;46.30;;;;;;5086127;28;20165;-79
2021/07/23 06:37:40;;;;;;;3.85;3.45;;;24.00;46.40;;;;;;5068999;28;20199;-79
2021/07/23 06:40:13;;;;;;;4.05;3.40;;;24.10;46.50;;;;;;5086524;28;20229;-79
2021/07/23 06:42:45;;;;;;;3.38;3.05;;;24.10;46.50;;;;;;5068778;28;20393;-79
2021/07/23 06:45:15;;;;;;;3.67;3.17;;;24.20;46.20;;;;;;5068808;28;20181;-79
2021/07/23 06:47:41;;;;;;;3.40;3.03;;;24.20;46.30;;;;;;5067942;28;20181;-79
2021/07/23 06:50:11;;;;;;;3.33;3.03;;;24.10;46.30;;;;;;5086534;28;20196;-79
2021/07/23 06:52:37;;;;;;;3.85;3.45;;;24.10;46.40;;;;;;5068064;28;20213;-79
2021/07/23 06:55:07;;;;;;;3.85;3.30;;;24.10;46.50;;;;;;5085385;28;20245;-79
2021/07/23 06:57:34;;;;;;;4.05;3.58;;;24.10;46.50;;;;;;5068619;28;20200;-78
2021/07/23 07:00:00;;;;;;;3.70;3.10;;;24.00;46.40;;;;;;5085753;28;20213;-79
2021/07/23 07:02:30;;;;;;;3.50;3.20;;;24.10;46.60;;;;;;5086170;28;20290;-79
2021/07/23 07:05:02;;;;;;;3.40;3.10;;;24.00;46.50;;;;;;5068590;28;20193;-79
2021/07/23 07:07:33;;;;;;;3.58;3.22;;;24.00;46.60;;;;;;5051738;28;20189;-79
2021/07/23 07:10:00;;;;;;;3.67;3.17;;;24.00;46.50;;;;;;5067910;28;20721;-79
2021/07/23 07:12:26;;;;;;;3.92;3.10;;;24.10;46.50;;;;;;5085552;28;20204;-79
2021/07/23 07:14:52;;;;;;;3.20;2.90;;;24.00;46.40;;;;;;5085598;28;20153;-79
2021/07/23 07:17:20;;;;;;;3.17;2.88;;;24.10;46.40;;;;;;5085634;28;20158;-79
2021/07/23 07:19:52;;;;;;;4.45;3.55;;;24.10;46.50;;;;;;5085585;28;20157;-79
2021/07/23 07:22:18;;;;;;;3.50;2.90;;;24.00;46.40;;;;;;5085114;28;20211;-79
2021/07/23 07:24:48;;;;;;;3.65;3.10;;;24.10;46.30;;;;;;5085073;28;20191;-79
2021/07/23 07:27:14;;;;;;;3.42;3.10;;;24.10;46.30;;;;;;5068503;28;20245;-79
2021/07/23 07:29:40;;;;;;;3.20;2.88;;;24.20;46.30;;;;;;5103025;28;20176;-79
2021/07/23 07:32:08;;;;;;;3.05;2.75;;;24.10;46.40;;;;;;5086929;28;20191;-79
2021/07/23 07:34:34;;;;;;;3.92;3.17;;;24.20;46.20;;;;;;5085361;28;20146;-79
2021/07/23 07:37:05;;;;;;;3.67;3.08;;;24.30;46.20;;;;;;5102828;28;20176;-79
2021/07/23 07:39:31;;;;;;;3.45;2.92;;;24.20;46.20;;;;;;5067755;28;20220;-79
2021/07/23 07:42:06;;;;;;;3.42;3.00;;;24.20;46.20;;;;;;5068567;28;20199;-79
2021/07/23 07:44:32;;;;;;;3.80;3.08;;;24.20;46.20;;;;;;5084541;28;20203;-79
2021/07/23 07:47:02;;;;;;;3.30;3.00;;;24.20;46.10;;;;;;5050867;28;20181;-79
2021/07/23 07:49:28;;;;;;;3.10;2.80;;;24.20;46.30;;;;;;5084206;28;20181;-79
2021/07/23 07:51:54;;;;;;;3.38;3.00;;;24.20;46.20;;;;;;5086815;28;20292;-79
2021/07/23 07:54:20;;;;;;;3.00;2.60;;;24.20;46.30;;;;;;5069198;28;20697;-79
2021/07/23 07:56:46;;;;;;;3.42;2.80;;;24.10;46.40;;;;;;5085519;28;20176;-79
2021/07/23 07:59:12;;;;;;;3.38;3.03;;;24.10;46.30;;;;;;5088951;28;20207;-79
2021/07/23 08:01:37;;;;;;;3.42;2.88;;;24.10;47.00;;;;;;5088784;28;20212;-79
2021/07/23 08:04:05;;;;;;;3.40;2.90;;;24.20;46.20;;;;;;5089512;28;20189;-79
2021/07/23 08:06:35;;;;;;;3.38;3.00;;;24.10;46.20;;;;;;5089124;28;20214;-79
2021/07/23 08:09:08;;;;;;;3.22;2.92;;;24.20;46.20;;;;;;5089607;28;20215;-79
2021/07/23 08:11:41;;;;;;;3.22;2.92;;;24.20;46.20;;;;;;5089104;28;20251;-79
2021/07/23 08:14:12;;;;;;;3.47;3.17;;;24.30;46.20;;;;;;5071166;28;20193;-79
2021/07/23 08:16:43;;;;;;;3.13;2.83;;;24.20;46.00;;;;;;5071085;28;20177;-79
2021/07/23 08:19:09;;;;;;;3.42;3.10;;;24.30;45.80;;;;;;5087867;28;20173;-79
2021/07/23 08:21:36;;;;;;;3.10;2.80;;;24.30;46.10;;;;;;5105516;28;20172;-79
2021/07/23 08:24:06;;;;;;;3.22;2.92;;;24.20;46.10;;;;;;5106632;28;20161;-79
2021/07/23 08:26:38;;;;;;;3.05;2.75;;;24.20;46.10;;;;;;5088158;28;20188;-79
2021/07/23 08:29:04;;;;;;;2.88;2.55;;;24.20;46.10;;;;;;5088305;28;20555;-79
2021/07/23 08:31:30;;;;;;;3.92;3.17;;;24.20;46.10;;;;;;5105717;28;20165;-79
2021/07/23 08:34:00;;;;;;;3.10;2.80;;;24.20;46.00;;;;;;5071942;28;20188;-79
2021/07/23 08:36:26;;;;;;;2.90;2.60;;;24.20;46.00;;;;;;5070716;28;20234;-79
2021/07/23 08:39:00;;;;;;;3.20;2.85;;;24.20;45.90;;;;;;5105827;28;20158;-79
2021/07/23 08:41:25;;;;;;;3.65;3.30;;;24.30;46.00;;;;;;5087544;28;20181;-78
2021/07/23 08:43:56;;;;;;;3.28;2.97;;;24.30;46.10;;;;;;5088370;28;20161;-78
2021/07/23 08:46:22;;;;;;;3.63;3.30;;;24.20;46.20;;;;;;5071089;28;20176;-77
2021/07/23 08:48:48;;;;;;;3.15;2.85;;;24.20;46.10;;;;;;5105074;28;20221;-77
2021/07/23 08:51:21;;;;;;;3.42;3.10;;;24.30;45.90;;;;;;5088704;28;20188;-77
2021/07/23 08:53:51;;;;;;;3.10;2.80;;;24.30;46.00;;;;;;5105452;28;20218;-78
2021/07/23 08:56:21;;;;;;;3.20;2.90;;;24.20;46.20;;;;;;5087129;28;20205;-77
2021/07/23 08:58:47;;;;;;;3.40;2.88;;;24.10;46.20;;;;;;5087239;28;20181;-77
2021/07/23 09:01:13;;;;;;;2.85;2.55;;;24.10;46.20;;;;;;5104900;28;20233;-78
2021/07/23 09:03:43;;;;;;;3.10;2.65;;;24.10;46.20;;;;;;5088879;28;20245;-78
2021/07/23 09:06:22;;;;;;;3.30;2.83;;;24.20;46.00;;;;;;5087800;28;20181;-78
2021/07/23 09:08:54;;;;;;;2.90;2.60;;;24.30;45.80;;;;;;5088009;28;20200;-79
2021/07/23 09:11:30;;;;;;;2.70;2.50;;;24.40;45.70;;;;;;5070434;28;20216;-78
2021/07/23 09:14:20;;;;;;;3.35;2.95;;;24.30;45.80;;;;;;5053647;28;20216;-78
2021/07/23 09:16:46;;;;;;;2.60;2.40;;;24.40;45.80;;;;;;5070856;28;20185;-78
2021/07/23 09:19:19;;;;;;;2.97;2.70;;;24.20;46.50;;;;;;5122399;28;20501;-78
2021/07/23 09:21:46;;;;;;;4.00;3.13;;;24.30;45.90;;;;;;5070580;28;20208;-78
2021/07/23 09:24:12;;;;;;;3.15;2.85;;;24.30;45.80;;;;;;5087400;28;20157;-78
2021/07/23 09:26:43;;;;;;;3.10;2.80;;;24.40;45.70;;;;;;5088092;28;20673;-78
2021/07/23 09:29:09;;;;;;;3.15;2.70;;;24.30;45.80;;;;;;5086957;28;20186;-78
2021/07/23 09:31:40;;;;;;;3.05;2.75;;;24.30;45.80;;;;;;5087567;28;20164;-78
2021/07/23 09:34:10;;;;;;;2.95;2.60;;;24.40;45.70;;;;;;5087213;28;20205;-78
2021/07/23 09:36:40;;;;;;;3.20;2.90;;;24.30;45.80;;;;;;5087505;28;20663;-78
2021/07/23 09:39:15;;;;;;;3.10;2.80;;;24.30;45.90;;;;;;5070113;28;20192;-78
2021/07/23 09:41:41;;;;;;;3.50;3.00;;;24.30;46.00;;;;;;5070840;28;20187;-78
2021/07/23 09:44:12;;;;;;;3.10;2.78;;;24.30;45.80;;;;;;5088011;28;20209;-78
2021/07/23 09:46:41;;;;;;;3.15;2.72;;;24.30;45.80;;;;;;5086715;28;20179;-78
2021/07/23 09:49:21;;;;;;;3.08;2.53;;;24.30;45.80;;;;;;5050054;28;20542;-78
2021/07/23 09:51:49;;;;;;;3.08;2.78;;;24.30;45.70;;;;;;5083581;28;20158;-78
2021/07/23 09:54:22;;;;;;;3.90;2.70;;;24.40;45.50;;;;;;5049443;28;20289;-78
2021/07/23 09:56:49;;;;;;;3.35;2.58;;;24.30;45.50;;;;;;5048953;28;20186;-79
2021/07/23 09:59:22;;;;;;;2.42;2.22;;;24.30;45.50;;;;;;5082412;28;20671;-79
2021/07/23 10:01:49;;;;;;;2.67;2.40;;;24.20;45.40;;;;;;5064993;28;20297;-78
2021/07/23 10:04:31;;;;;;;3.03;2.30;;;24.10;45.30;;;;;;5066596;28;20204;-78
2021/07/23 10:07:05;;;;;;;2.25;2.05;;;24.10;45.30;;;;;;5066491;28;20521;-78
2021/07/23 10:09:31;;;;;;;2.72;2.30;;;24.00;45.10;;;;;;5066497;28;20224;-79
2021/07/23 10:11:59;;;;;;;2.78;2.35;;;24.10;45.10;;;;;;5066190;28;20271;-78
2021/07/23 10:14:27;;;;;;;2.40;2.20;;;24.10;44.80;;;;;;5065989;28;20190;-79
2021/07/23 10:16:53;;;;;;;2.45;2.25;;;24.10;44.70;;;;;;5049867;28;20170;-78
2021/07/23 10:19:24;;;;;;;2.42;2.17;;;24.00;44.60;;;;;;5049969;28;20277;-79
2021/07/23 10:21:58;;;;;;;2.60;2.40;;;24.00;44.60;;;;;;5065457;28;20185;-78
2021/07/23 10:24:31;;;;;;;2.60;2.40;;;24.00;44.60;;;;;;5045610;28;20178;-78
2021/07/23 10:26:58;;;;;;;2.20;2.00;;;24.00;44.40;;;;;;5029177;28;20277;-78
2021/07/23 10:29:45;;;;;;;2.40;2.20;;;24.00;44.20;;;;;;5012828;28;20178;-79
2021/07/23 10:32:29;;;;;;;2.25;2.00;;;24.00;44.00;;;;;;5029451;28;20186;-79
2021/07/23 10:34:56;;;;;;;2.10;1.90;;;24.00;43.90;;;;;;5028933;28;20186;-79
2021/07/23 10:37:50;;;;;;;2.83;2.30;;;24.00;44.10;;;;;;5028993;28;20186;-78
2021/07/23 10:40:31;;;;;;;2.30;2.10;;;24.00;43.90;;;;;;5029007;28;20182;-79
2021/07/23 10:43:01;;;;;;;2.72;2.30;;;24.00;43.90;;;;;;5027643;28;20189;-79
2021/07/23 10:45:41;;;;;;;2.58;2.28;;;23.90;43.80;;;;;;5028321;28;20179;-79
2021/07/23 10:48:15;;;;;;;2.22;2.03;;;23.90;43.80;;;;;;5029750;28;20175;-79
2021/07/23 10:50:47;;;;;;;2.30;2.10;;;23.90;44.00;;;;;;5045459;28;20182;-79
2021/07/23 10:53:35;;;;;;;2.08;1.88;;;23.90;43.80;;;;;;5013130;28;20203;-79
2021/07/23 10:56:01;;;;;;;2.22;2.03;;;23.90;43.90;;;;;;5028980;28;20637;-79
2021/07/23 10:58:33;;;;;;;2.20;2.00;;;23.90;43.70;;;;;;5027887;28;20277;-79
2021/07/23 11:00:59;;;;;;;2.25;2.00;;;24.00;43.50;;;;;;5035062;28;20213;-79
2021/07/23 11:03:45;;;;;;;2.80;2.20;;;24.00;43.30;;;;;;5086859;28;20164;-78
2021/07/23 11:06:17;;;;;;;2.03;1.83;;;24.00;43.30;;;;;;5102348;28;20166;-79
2021/07/23 11:08:51;;;;;;;2.08;1.90;;;24.00;43.20;;;;;;5069150;28;20169;-79
2021/07/23 11:11:18;;;;;;;2.22;2.03;;;24.00;43.20;;;;;;5068670;28;20185;-79
2021/07/23 11:13:44;;;;;;;2.15;1.95;;;24.00;43.80;;;;;;5087528;28;20186;-79
2021/07/23 11:16:17;;;;;;;2.28;2.08;;;23.90;43.20;;;;;;5084892;28;20161;-79
2021/07/23 11:18:52;;;;;;;2.42;2.22;;;23.90;43.20;;;;;;5084114;28;20173;-79
2021/07/23 11:21:18;;;;;;;2.08;1.88;;;23.80;43.40;;;;;;5069126;28;20190;-79
2021/07/23 11:23:46;;;;;;;2.17;1.98;;;23.80;43.40;;;;;;5101950;28;20161;-79
2021/07/23 11:26:24;;;;;;;2.05;1.85;;;23.90;43.30;;;;;;5102917;28;20165;-79
2021/07/23 11:28:57;;;;;;;1.95;1.85;;;23.80;43.30;;;;;;5068313;28;20189;-78
2021/07/23 11:31:36;;;;;;;2.45;2.25;;;23.70;43.20;;;;;;5051670;28;20254;-79
2021/07/23 11:34:25;;;;;;;2.20;2.00;;;23.80;43.40;;;;;;5052465;28;20227;-79
2021/07/23 11:36:59;;;;;;;1.70;1.60;;;23.70;43.30;;;;;;5068384;28;20181;-79
2021/07/23 11:39:25;;;;;;;1.73;1.63;;;23.70;43.20;;;;;;5067997;28;20218;-79
2021/07/23 11:42:05;;;;;;;2.10;1.90;;;23.70;43.30;;;;;;5086883;28;20162;-79
2021/07/23 11:44:32;;;;;;;2.20;2.00;;;23.70;43.40;;;;;;5085990;28;20236;-79
2021/07/23 11:46:58;;;;;;;1.80;1.70;;;23.60;43.40;;;;;;5102882;28;20162;-78
2021/07/23 11:49:35;;;;;;;2.28;2.08;;;23.70;43.40;;;;;;5085620;28;20242;-79
2021/07/23 11:52:02;;;;;;;1.83;1.73;;;23.70;43.40;;;;;;5067766;28;20204;-79
2021/07/23 11:54:32;;;;;;;1.60;1.50;;;23.60;43.30;;;;;;5118922;28;20196;-78
2021/07/23 11:57:04;;;;;;;2.50;2.10;;;23.60;43.20;;;;;;5051119;28;20204;-79
2021/07/23 11:59:37;;;;;;;2.60;1.90;;;23.60;43.30;;;;;;5067545;28;20192;-79
2021/07/23 12:02:08;;;;;;;2.20;2.00;;;23.60;43.40;;;;;;5084487;28;20224;-79
2021/07/23 12:04:41;;;;;;;2.03;1.88;;;23.60;43.50;;;;;;5085663;28;20153;-78
2021/07/23 12:07:08;;;;;;;2.20;2.00;;;23.60;43.40;;;;;;5051951;28;20181;-79
2021/07/23 12:09:38;;;;;;;2.20;2.00;;;23.50;43.30;;;;;;5085660;28;20192;-79
2021/07/23 12:12:06;;;;;;;2.08;1.88;;;23.60;43.30;;;;;;5067577;28;20205;-79
2021/07/23 12:14:36;;;;;;;1.67;1.58;;;23.60;43.20;;;;;;5068604;28;20648;-80
2021/07/23 12:17:02;;;;;;;1.98;1.77;;;23.60;43.20;;;;;;5067828;28;20220;-79
2021/07/23 12:19:33;;;;;;;2.10;1.90;;;23.60;43.10;;;;;;5101367;28;20165;-79
2021/07/23 12:22:14;;;;;;;1.85;1.70;;;23.60;43.10;;;;;;5070351;28;20195;-80
2021/07/23 12:24:40;;;;;;;1.88;1.77;;;23.50;43.00;;;;;;5070399;28;20387;-79
2021/07/23 12:27:19;;;;;;;2.08;1.88;;;23.60;43.20;;;;;;5104195;28;20172;-79
2021/07/23 12:29:45;;;;;;;1.83;1.73;;;23.60;43.20;;;;;;5053908;28;20176;-79
2021/07/23 12:32:23;;;;;;;2.20;1.98;;;23.60;43.20;;;;;;5087212;28;20232;-79
2021/07/23 12:34:57;;;;;;;2.08;1.90;;;23.60;43.10;;;;;;5055186;28;20229;-79
2021/07/23 12:37:27;;;;;;;2.42;1.92;;;23.50;43.00;;;;;;5087014;28;20165;-79
2021/07/23 12:39:59;;;;;;;2.00;1.80;;;23.60;43.10;;;;;;5021014;28;20180;-79
2021/07/23 12:42:26;;;;;;;1.92;1.83;;;23.60;43.20;;;;;;5037149;28;20188;-79
2021/07/23 12:44:57;;;;;;;2.45;2.25;;;23.50;43.00;;;;;;5086667;28;20226;-79
2021/07/23 12:47:28;;;;;;;2.05;1.85;;;23.60;42.90;;;;;;5041735;28;20192;-79
2021/07/23 12:49:55;;;;;;;1.88;1.77;;;23.60;42.90;;;;;;5024414;28;20176;-79
2021/07/23 12:52:22;;;;;;;1.98;1.83;;;23.70;42.90;;;;;;5074281;28;20347;-79
2021/07/23 12:54:53;;;;;;;1.65;1.55;;;23.70;42.80;;;;;;5090936;28;20225;-79
2021/07/23 12:57:31;;;;;;;2.20;2.00;;;23.70;42.80;;;;;;5024392;28;20325;-79
2021/07/23 13:00:15;;;;;;;1.92;1.73;;;23.70;42.60;;;;;;5039668;28;20185;-79